sensor_id;sensor_type;location;lat;lon;timestamp;P1;durP1;ratioP1;P2;durP2;ratioP2
47960;SDS011;33721;48.852;9.936;2023-08-24T00:01:10;17.50;;;12.50;;
47960;SDS011;33721;48.852;9.936;2023-08-24T00:03:37;24.27;;;12.40;;
47960;SDS011;33721;48.852;9.936;2023-08-24T00:06:03;23.05;;;12.75;;
47960;SDS011;33721;48.852;9.936;2023-08-24T00:08:29;19.33;;;12.68;;
47960;SDS011;33721;48.852;9.936;2023-08-24T00:10:55;20.30;;;12.25;;
47960;SDS011;33721;48.852;9.936;2023-08-24T00:13:20;17.48;;;11.88;;
47960;SDS011;33721;48.852;9.936;2023-08-24T00:15:46;19.15;;;11.65;;
47960;SDS011;33721;48.852;9.936;2023-08-24T00:18:12;19.23;;;11.80;;
47960;SDS011;33721;48.852;9.936;2023-08-24T00:20:38;20.90;;;12.65;;
47960;SDS011;33721;48.852;9.936;2023-08-24T00:23:03;22.48;;;12.55;;
47960;SDS011;33721;48.852;9.936;2023-08-24T00:25:29;15.68;;;11.52;;
47960;SDS011;33721;48.852;9.936;2023-08-24T00:27:56;19.77;;;12.27;;
47960;SDS011;33721;48.852;9.936;2023-08-24T00:30:22;18.88;;;12.52;;
47960;SDS011;33721;48.852;9.936;2023-08-24T00:32:48;18.42;;;12.70;;
47960;SDS011;33721;48.852;9.936;2023-08-24T00:35:14;18.67;;;12.02;;
47960;SDS011;33721;48.852;9.936;2023-08-24T00:37:40;16.52;;;11.60;;
47960;SDS011;33721;48.852;9.936;2023-08-24T00:40:07;19.63;;;12.57;;
47960;SDS011;33721;48.852;9.936;2023-08-24T00:42:39;19.33;;;11.32;;
47960;SDS011;33721;48.852;9.936;2023-08-24T00:45:06;22.03;;;13.10;;
47960;SDS011;33721;48.852;9.936;2023-08-24T00:47:34;16.35;;;12.27;;
47960;SDS011;33721;48.852;9.936;2023-08-24T00:50:01;17.60;;;12.02;;
47960;SDS011;33721;48.852;9.936;2023-08-24T00:52:27;35.92;;;13.70;;
47960;SDS011;33721;48.852;9.936;2023-08-24T00:54:56;18.02;;;12.45;;
47960;SDS011;33721;48.852;9.936;2023-08-24T00:57:22;21.38;;;12.73;;
47960;SDS011;33721;48.852;9.936;2023-08-24T00:59:48;25.70;;;13.20;;
47960;SDS011;33721;48.852;9.936;2023-08-24T01:02:14;19.17;;;12.25;;
47960;SDS011;33721;48.852;9.936;2023-08-24T01:04:43;21.27;;;12.70;;
47960;SDS011;33721;48.852;9.936;2023-08-24T01:07:09;16.95;;;11.80;;
47960;SDS011;33721;48.852;9.936;2023-08-24T01:09:35;25.05;;;12.85;;
47960;SDS011;33721;48.852;9.936;2023-08-24T01:17:26;20.27;;;12.65;;
47960;SDS011;33721;48.852;9.936;2023-08-24T01:19:54;17.60;;;12.68;;
47960;SDS011;33721;48.852;9.936;2023-08-24T01:27:41;17.85;;;12.07;;
47960;SDS011;33721;48.852;9.936;2023-08-24T01:30:08;17.25;;;12.48;;
47960;SDS011;33721;48.852;9.936;2023-08-24T01:32:35;19.63;;;13.10;;
47960;SDS011;33721;48.852;9.936;2023-08-24T01:35:02;17.42;;;12.75;;
47960;SDS011;33721;48.852;9.936;2023-08-24T01:37:30;19.00;;;13.55;;
47960;SDS011;33721;48.852;9.936;2023-08-24T01:42:55;23.42;;;14.43;;
47960;SDS011;33721;48.852;9.936;2023-08-24T01:45:24;22.05;;;13.50;;
47960;SDS011;33721;48.852;9.936;2023-08-24T01:47:54;22.65;;;14.02;;
47960;SDS011;33721;48.852;9.936;2023-08-24T01:50:21;22.02;;;13.70;;
47960;SDS011;33721;48.852;9.936;2023-08-24T01:52:47;17.58;;;13.27;;
47960;SDS011;33721;48.852;9.936;2023-08-24T01:55:13;23.10;;;13.23;;
47960;SDS011;33721;48.852;9.936;2023-08-24T01:57:40;20.52;;;12.90;;
47960;SDS011;33721;48.852;9.936;2023-08-24T02:00:06;18.75;;;13.55;;
47960;SDS011;33721;48.852;9.936;2023-08-24T02:02:34;19.75;;;12.98;;
47960;SDS011;33721;48.852;9.936;2023-08-24T02:05:00;25.40;;;13.93;;
47960;SDS011;33721;48.852;9.936;2023-08-24T02:07:25;19.90;;;13.65;;
47960;SDS011;33721;48.852;9.936;2023-08-24T02:09:51;20.17;;;13.63;;
47960;SDS011;33721;48.852;9.936;2023-08-24T02:12:17;21.30;;;13.60;;
47960;SDS011;33721;48.852;9.936;2023-08-24T02:14:42;18.98;;;13.10;;
47960;SDS011;33721;48.852;9.936;2023-08-24T02:17:08;20.67;;;13.88;;
47960;SDS011;33721;48.852;9.936;2023-08-24T02:19:33;18.60;;;13.13;;
47960;SDS011;33721;48.852;9.936;2023-08-24T02:21:59;20.60;;;12.85;;
47960;SDS011;33721;48.852;9.936;2023-08-24T02:24:25;22.10;;;13.55;;
47960;SDS011;33721;48.852;9.936;2023-08-24T02:26:50;21.20;;;13.77;;
47960;SDS011;33721;48.852;9.936;2023-08-24T02:29:16;20.85;;;13.93;;
47960;SDS011;33721;48.852;9.936;2023-08-24T02:31:42;23.02;;;14.02;;
47960;SDS011;33721;48.852;9.936;2023-08-24T02:34:07;18.58;;;13.10;;
47960;SDS011;33721;48.852;9.936;2023-08-24T02:36:33;26.27;;;13.95;;
47960;SDS011;33721;48.852;9.936;2023-08-24T02:38:59;22.55;;;14.05;;
47960;SDS011;33721;48.852;9.936;2023-08-24T02:41:25;25.45;;;13.25;;
47960;SDS011;33721;48.852;9.936;2023-08-24T02:43:52;28.65;;;13.88;;
47960;SDS011;33721;48.852;9.936;2023-08-24T02:46:18;19.77;;;13.00;;
47960;SDS011;33721;48.852;9.936;2023-08-24T02:48:45;22.70;;;14.55;;
47960;SDS011;33721;48.852;9.936;2023-08-24T02:51:11;22.60;;;13.43;;
47960;SDS011;33721;48.852;9.936;2023-08-24T02:53:38;22.50;;;14.02;;
47960;SDS011;33721;48.852;9.936;2023-08-24T02:56:04;22.45;;;13.75;;
47960;SDS011;33721;48.852;9.936;2023-08-24T02:58:30;23.35;;;14.13;;
47960;SDS011;33721;48.852;9.936;2023-08-24T03:00:56;23.75;;;14.38;;
47960;SDS011;33721;48.852;9.936;2023-08-24T03:03:23;22.17;;;14.30;;
47960;SDS011;33721;48.852;9.936;2023-08-24T03:08:22;23.42;;;14.15;;
47960;SDS011;33721;48.852;9.936;2023-08-24T03:10:48;27.35;;;13.23;;
47960;SDS011;33721;48.852;9.936;2023-08-24T03:13:13;19.88;;;13.13;;
47960;SDS011;33721;48.852;9.936;2023-08-24T03:15:39;27.45;;;13.43;;
47960;SDS011;33721;48.852;9.936;2023-08-24T03:18:05;22.38;;;13.30;;
47960;SDS011;33721;48.852;9.936;2023-08-24T03:20:30;20.58;;;13.60;;
47960;SDS011;33721;48.852;9.936;2023-08-24T03:22:56;23.45;;;14.07;;
47960;SDS011;33721;48.852;9.936;2023-08-24T03:25:22;20.92;;;13.23;;
47960;SDS011;33721;48.852;9.936;2023-08-24T03:27:48;21.08;;;13.18;;
47960;SDS011;33721;48.852;9.936;2023-08-24T03:30:14;23.30;;;13.77;;
47960;SDS011;33721;48.852;9.936;2023-08-24T03:32:40;25.58;;;14.10;;
47960;SDS011;33721;48.852;9.936;2023-08-24T03:35:06;24.85;;;14.35;;
47960;SDS011;33721;48.852;9.936;2023-08-24T03:37:32;19.15;;;13.32;;
47960;SDS011;33721;48.852;9.936;2023-08-24T03:39:58;20.60;;;13.65;;
47960;SDS011;33721;48.852;9.936;2023-08-24T03:42:24;22.60;;;13.63;;
47960;SDS011;33721;48.852;9.936;2023-08-24T03:44:50;21.50;;;13.45;;
47960;SDS011;33721;48.852;9.936;2023-08-24T03:47:15;18.05;;;12.75;;
47960;SDS011;33721;48.852;9.936;2023-08-24T03:49:42;23.70;;;13.32;;
47960;SDS011;33721;48.852;9.936;2023-08-24T03:52:08;23.08;;;13.35;;
47960;SDS011;33721;48.852;9.936;2023-08-24T03:54:34;21.63;;;13.35;;
47960;SDS011;33721;48.852;9.936;2023-08-24T03:56:59;19.90;;;12.85;;
47960;SDS011;33721;48.852;9.936;2023-08-24T03:59:26;19.10;;;13.60;;
47960;SDS011;33721;48.852;9.936;2023-08-24T04:01:51;21.42;;;13.48;;
47960;SDS011;33721;48.852;9.936;2023-08-24T04:04:17;23.27;;;13.70;;
47960;SDS011;33721;48.852;9.936;2023-08-24T04:06:43;21.52;;;13.07;;
47960;SDS011;33721;48.852;9.936;2023-08-24T04:09:08;19.30;;;12.93;;
47960;SDS011;33721;48.852;9.936;2023-08-24T04:11:34;25.88;;;13.20;;
47960;SDS011;33721;48.852;9.936;2023-08-24T04:14:00;21.05;;;12.38;;
47960;SDS011;33721;48.852;9.936;2023-08-24T04:16:26;21.35;;;14.25;;
47960;SDS011;33721;48.852;9.936;2023-08-24T04:18:51;19.48;;;12.85;;
47960;SDS011;33721;48.852;9.936;2023-08-24T04:21:17;18.10;;;12.82;;
47960;SDS011;33721;48.852;9.936;2023-08-24T04:23:43;20.60;;;12.90;;
47960;SDS011;33721;48.852;9.936;2023-08-24T04:26:13;23.08;;;12.75;;
47960;SDS011;33721;48.852;9.936;2023-08-24T04:28:39;19.77;;;13.00;;
47960;SDS011;33721;48.852;9.936;2023-08-24T04:31:04;20.25;;;13.18;;
47960;SDS011;33721;48.852;9.936;2023-08-24T04:33:30;18.33;;;12.27;;
47960;SDS011;33721;48.852;9.936;2023-08-24T04:35:56;22.00;;;13.25;;
47960;SDS011;33721;48.852;9.936;2023-08-24T04:38:23;18.70;;;12.18;;
47960;SDS011;33721;48.852;9.936;2023-08-24T04:43:19;19.13;;;13.07;;
47960;SDS011;33721;48.852;9.936;2023-08-24T04:45:49;18.52;;;11.75;;
47960;SDS011;33721;48.852;9.936;2023-08-24T04:48:19;16.95;;;12.05;;
47960;SDS011;33721;48.852;9.936;2023-08-24T04:50:48;20.42;;;12.45;;
47960;SDS011;33721;48.852;9.936;2023-08-24T04:53:15;21.77;;;12.52;;
47960;SDS011;33721;48.852;9.936;2023-08-24T04:55:43;18.65;;;12.63;;
47960;SDS011;33721;48.852;9.936;2023-08-24T04:58:09;18.75;;;13.13;;
47960;SDS011;33721;48.852;9.936;2023-08-24T05:00:36;19.13;;;12.40;;
47960;SDS011;33721;48.852;9.936;2023-08-24T05:03:02;17.23;;;12.52;;
47960;SDS011;33721;48.852;9.936;2023-08-24T05:05:31;18.08;;;11.95;;
47960;SDS011;33721;48.852;9.936;2023-08-24T05:07:58;18.85;;;12.55;;
47960;SDS011;33721;48.852;9.936;2023-08-24T05:10:25;26.05;;;13.27;;
47960;SDS011;33721;48.852;9.936;2023-08-24T05:12:51;17.92;;;11.73;;
47960;SDS011;33721;48.852;9.936;2023-08-24T05:15:17;20.92;;;12.35;;
47960;SDS011;33721;48.852;9.936;2023-08-24T05:17:43;16.83;;;12.20;;
47960;SDS011;33721;48.852;9.936;2023-08-24T05:20:08;18.15;;;12.18;;
47960;SDS011;33721;48.852;9.936;2023-08-24T05:22:37;19.35;;;12.85;;
47960;SDS011;33721;48.852;9.936;2023-08-24T05:25:03;19.85;;;12.60;;
47960;SDS011;33721;48.852;9.936;2023-08-24T05:27:30;22.20;;;12.95;;
47960;SDS011;33721;48.852;9.936;2023-08-24T05:29:55;19.77;;;12.50;;
47960;SDS011;33721;48.852;9.936;2023-08-24T05:32:21;18.90;;;12.35;;
47960;SDS011;33721;48.852;9.936;2023-08-24T05:34:47;23.38;;;12.95;;
47960;SDS011;33721;48.852;9.936;2023-08-24T05:37:12;18.40;;;12.70;;
47960;SDS011;33721;48.852;9.936;2023-08-24T05:39:38;17.90;;;12.70;;
47960;SDS011;33721;48.852;9.936;2023-08-24T05:42:04;19.92;;;12.95;;
47960;SDS011;33721;48.852;9.936;2023-08-24T05:44:30;19.38;;;12.40;;
47960;SDS011;33721;48.852;9.936;2023-08-24T05:46:55;20.33;;;13.05;;
47960;SDS011;33721;48.852;9.936;2023-08-24T05:49:21;23.20;;;13.20;;
47960;SDS011;33721;48.852;9.936;2023-08-24T05:51:49;24.95;;;13.27;;
47960;SDS011;33721;48.852;9.936;2023-08-24T05:54:16;20.30;;;12.70;;
47960;SDS011;33721;48.852;9.936;2023-08-24T05:56:47;23.63;;;12.15;;
47960;SDS011;33721;48.852;9.936;2023-08-24T05:59:13;17.58;;;12.43;;
47960;SDS011;33721;48.852;9.936;2023-08-24T06:01:39;21.25;;;12.00;;
47960;SDS011;33721;48.852;9.936;2023-08-24T06:04:06;19.58;;;12.60;;
47960;SDS011;33721;48.852;9.936;2023-08-24T06:06:33;20.45;;;12.35;;
47960;SDS011;33721;48.852;9.936;2023-08-24T06:08:59;20.08;;;11.68;;
47960;SDS011;33721;48.852;9.936;2023-08-24T06:11:25;16.13;;;11.38;;
47960;SDS011;33721;48.852;9.936;2023-08-24T06:13:50;24.90;;;12.13;;
47960;SDS011;33721;48.852;9.936;2023-08-24T06:16:18;19.13;;;12.45;;
47960;SDS011;33721;48.852;9.936;2023-08-24T06:18:44;17.13;;;12.05;;
47960;SDS011;33721;48.852;9.936;2023-08-24T06:21:10;22.60;;;12.13;;
47960;SDS011;33721;48.852;9.936;2023-08-24T06:23:36;20.90;;;12.50;;
47960;SDS011;33721;48.852;9.936;2023-08-24T06:26:01;27.98;;;13.20;;
47960;SDS011;33721;48.852;9.936;2023-08-24T06:28:27;30.48;;;13.10;;
47960;SDS011;33721;48.852;9.936;2023-08-24T06:30:54;21.42;;;12.65;;
47960;SDS011;33721;48.852;9.936;2023-08-24T06:33:20;18.95;;;12.18;;
47960;SDS011;33721;48.852;9.936;2023-08-24T06:35:46;19.92;;;11.70;;
47960;SDS011;33721;48.852;9.936;2023-08-24T06:38:13;21.90;;;10.68;;
47960;SDS011;33721;48.852;9.936;2023-08-24T06:40:41;17.23;;;11.07;;
47960;SDS011;33721;48.852;9.936;2023-08-24T06:43:06;20.95;;;11.23;;
47960;SDS011;33721;48.852;9.936;2023-08-24T06:45:32;17.63;;;11.50;;
47960;SDS011;33721;48.852;9.936;2023-08-24T06:47:57;17.60;;;11.93;;
47960;SDS011;33721;48.852;9.936;2023-08-24T06:50:23;22.88;;;11.65;;
47960;SDS011;33721;48.852;9.936;2023-08-24T06:52:49;17.35;;;12.13;;
47960;SDS011;33721;48.852;9.936;2023-08-24T06:55:14;13.82;;;10.07;;
47960;SDS011;33721;48.852;9.936;2023-08-24T06:57:40;17.52;;;11.05;;
47960;SDS011;33721;48.852;9.936;2023-08-24T07:00:06;19.23;;;11.15;;
47960;SDS011;33721;48.852;9.936;2023-08-24T07:02:35;21.83;;;11.10;;
47960;SDS011;33721;48.852;9.936;2023-08-24T07:05:02;16.70;;;10.15;;
47960;SDS011;33721;48.852;9.936;2023-08-24T07:07:30;18.75;;;10.73;;
47960;SDS011;33721;48.852;9.936;2023-08-24T07:09:55;16.90;;;10.65;;
47960;SDS011;33721;48.852;9.936;2023-08-24T07:12:21;17.70;;;11.10;;
47960;SDS011;33721;48.852;9.936;2023-08-24T07:14:47;18.45;;;10.98;;
47960;SDS011;33721;48.852;9.936;2023-08-24T07:17:12;14.25;;;10.40;;
47960;SDS011;33721;48.852;9.936;2023-08-24T07:19:38;15.07;;;11.18;;
47960;SDS011;33721;48.852;9.936;2023-08-24T07:22:03;20.67;;;11.02;;
47960;SDS011;33721;48.852;9.936;2023-08-24T07:24:29;18.58;;;11.15;;
47960;SDS011;33721;48.852;9.936;2023-08-24T07:26:55;13.40;;;10.70;;
47960;SDS011;33721;48.852;9.936;2023-08-24T07:29:21;15.48;;;10.02;;
47960;SDS011;33721;48.852;9.936;2023-08-24T07:31:47;15.25;;;9.45;;
47960;SDS011;33721;48.852;9.936;2023-08-24T07:34:13;15.98;;;10.20;;
47960;SDS011;33721;48.852;9.936;2023-08-24T07:36:39;14.55;;;9.63;;
47960;SDS011;33721;48.852;9.936;2023-08-24T07:39:05;14.98;;;9.85;;
47960;SDS011;33721;48.852;9.936;2023-08-24T07:41:30;17.17;;;9.98;;
47960;SDS011;33721;48.852;9.936;2023-08-24T07:43:56;12.13;;;8.82;;
47960;SDS011;33721;48.852;9.936;2023-08-24T07:46:22;15.38;;;10.20;;
47960;SDS011;33721;48.852;9.936;2023-08-24T07:48:47;16.45;;;9.48;;
47960;SDS011;33721;48.852;9.936;2023-08-24T07:51:13;17.58;;;9.48;;
47960;SDS011;33721;48.852;9.936;2023-08-24T07:53:39;16.45;;;9.82;;
47960;SDS011;33721;48.852;9.936;2023-08-24T07:56:04;15.90;;;8.93;;
47960;SDS011;33721;48.852;9.936;2023-08-24T07:58:30;13.77;;;8.40;;
47960;SDS011;33721;48.852;9.936;2023-08-24T08:00:57;14.27;;;8.02;;
47960;SDS011;33721;48.852;9.936;2023-08-24T08:03:23;17.23;;;8.75;;
47960;SDS011;33721;48.852;9.936;2023-08-24T08:05:49;11.60;;;8.05;;
47960;SDS011;33721;48.852;9.936;2023-08-24T08:08:15;22.25;;;8.02;;
47960;SDS011;33721;48.852;9.936;2023-08-24T08:10:41;11.50;;;7.82;;
47960;SDS011;33721;48.852;9.936;2023-08-24T08:13:08;18.27;;;8.30;;
47960;SDS011;33721;48.852;9.936;2023-08-24T08:15:36;12.32;;;7.72;;
47960;SDS011;33721;48.852;9.936;2023-08-24T08:18:03;22.20;;;7.88;;
47960;SDS011;33721;48.852;9.936;2023-08-24T08:20:29;11.65;;;7.75;;
47960;SDS011;33721;48.852;9.936;2023-08-24T08:22:55;13.60;;;7.53;;
47960;SDS011;33721;48.852;9.936;2023-08-24T08:25:21;16.02;;;7.75;;
47960;SDS011;33721;48.852;9.936;2023-08-24T08:27:47;14.18;;;8.57;;
47960;SDS011;33721;48.852;9.936;2023-08-24T08:30:14;13.98;;;8.10;;
47960;SDS011;33721;48.852;9.936;2023-08-24T08:32:40;13.55;;;7.60;;
47960;SDS011;33721;48.852;9.936;2023-08-24T08:35:06;14.30;;;8.70;;
47960;SDS011;33721;48.852;9.936;2023-08-24T08:37:33;11.15;;;8.52;;
47960;SDS011;33721;48.852;9.936;2023-08-24T08:39:59;10.80;;;7.70;;
47960;SDS011;33721;48.852;9.936;2023-08-24T08:42:24;13.27;;;8.25;;
47960;SDS011;33721;48.852;9.936;2023-08-24T08:44:50;16.42;;;8.13;;
47960;SDS011;33721;48.852;9.936;2023-08-24T08:47:19;16.00;;;8.02;;
47960;SDS011;33721;48.852;9.936;2023-08-24T08:49:45;13.10;;;7.20;;
47960;SDS011;33721;48.852;9.936;2023-08-24T08:52:13;12.82;;;7.53;;
47960;SDS011;33721;48.852;9.936;2023-08-24T08:54:39;18.13;;;7.75;;
47960;SDS011;33721;48.852;9.936;2023-08-24T08:57:08;13.80;;;7.43;;
47960;SDS011;33721;48.852;9.936;2023-08-24T08:59:34;20.27;;;7.82;;
47960;SDS011;33721;48.852;9.936;2023-08-24T09:02:02;14.63;;;7.60;;
47960;SDS011;33721;48.852;9.936;2023-08-24T09:04:31;12.95;;;7.55;;
47960;SDS011;33721;48.852;9.936;2023-08-24T09:06:58;13.88;;;7.32;;
47960;SDS011;33721;48.852;9.936;2023-08-24T09:09:28;13.85;;;7.00;;
47960;SDS011;33721;48.852;9.936;2023-08-24T09:11:54;16.13;;;8.43;;
47960;SDS011;33721;48.852;9.936;2023-08-24T09:14:20;11.60;;;7.72;;
47960;SDS011;33721;48.852;9.936;2023-08-24T09:16:45;11.32;;;7.93;;
47960;SDS011;33721;48.852;9.936;2023-08-24T09:19:11;13.48;;;7.55;;
47960;SDS011;33721;48.852;9.936;2023-08-24T09:21:38;12.30;;;7.13;;
47960;SDS011;33721;48.852;9.936;2023-08-24T09:24:05;13.80;;;7.68;;
47960;SDS011;33721;48.852;9.936;2023-08-24T09:26:33;11.68;;;7.25;;
47960;SDS011;33721;48.852;9.936;2023-08-24T09:29:00;11.68;;;7.05;;
47960;SDS011;33721;48.852;9.936;2023-08-24T09:31:35;12.13;;;7.63;;
47960;SDS011;33721;48.852;9.936;2023-08-24T09:34:04;13.07;;;7.53;;
47960;SDS011;33721;48.852;9.936;2023-08-24T09:36:34;9.00;;;7.00;;
47960;SDS011;33721;48.852;9.936;2023-08-24T09:39:00;16.35;;;8.23;;
47960;SDS011;33721;48.852;9.936;2023-08-24T09:41:43;10.90;;;7.90;;
47960;SDS011;33721;48.852;9.936;2023-08-24T09:44:09;13.80;;;7.30;;
47960;SDS011;33721;48.852;9.936;2023-08-24T09:46:38;13.57;;;7.80;;
47960;SDS011;33721;48.852;9.936;2023-08-24T09:49:06;11.77;;;7.65;;
47960;SDS011;33721;48.852;9.936;2023-08-24T09:51:33;11.05;;;7.53;;
47960;SDS011;33721;48.852;9.936;2023-08-24T09:54:00;12.63;;;7.18;;
47960;SDS011;33721;48.852;9.936;2023-08-24T09:56:31;17.42;;;7.90;;
47960;SDS011;33721;48.852;9.936;2023-08-24T09:59:08;10.57;;;8.00;;
47960;SDS011;33721;48.852;9.936;2023-08-24T10:01:38;9.50;;;7.38;;
47960;SDS011;33721;48.852;9.936;2023-08-24T10:04:09;14.70;;;7.57;;
47960;SDS011;33721;48.852;9.936;2023-08-24T10:06:36;12.13;;;7.97;;
47960;SDS011;33721;48.852;9.936;2023-08-24T10:09:05;12.60;;;6.97;;
47960;SDS011;33721;48.852;9.936;2023-08-24T10:11:34;12.50;;;7.32;;
47960;SDS011;33721;48.852;9.936;2023-08-24T10:14:18;14.55;;;7.60;;
47960;SDS011;33721;48.852;9.936;2023-08-24T10:16:54;13.15;;;7.43;;
47960;SDS011;33721;48.852;9.936;2023-08-24T10:19:21;16.75;;;7.40;;
47960;SDS011;33721;48.852;9.936;2023-08-24T10:21:48;11.02;;;7.20;;
47960;SDS011;33721;48.852;9.936;2023-08-24T10:24:18;13.80;;;7.05;;
47960;SDS011;33721;48.852;9.936;2023-08-24T10:26:46;9.63;;;6.97;;
47960;SDS011;33721;48.852;9.936;2023-08-24T10:29:12;10.23;;;6.90;;
47960;SDS011;33721;48.852;9.936;2023-08-24T10:31:40;10.70;;;7.50;;
47960;SDS011;33721;48.852;9.936;2023-08-24T10:34:06;13.30;;;7.90;;
47960;SDS011;33721;48.852;9.936;2023-08-24T10:36:33;12.07;;;7.35;;
47960;SDS011;33721;48.852;9.936;2023-08-24T10:39:02;8.55;;;7.05;;
47960;SDS011;33721;48.852;9.936;2023-08-24T10:41:45;17.17;;;7.88;;
47960;SDS011;33721;48.852;9.936;2023-08-24T10:44:21;15.93;;;7.10;;
47960;SDS011;33721;48.852;9.936;2023-08-24T10:49:44;14.20;;;8.73;;
47960;SDS011;33721;48.852;9.936;2023-08-24T10:52:30;16.17;;;7.18;;
47960;SDS011;33721;48.852;9.936;2023-08-24T10:55:03;13.30;;;7.32;;
47960;SDS011;33721;48.852;9.936;2023-08-24T10:57:37;21.52;;;7.28;;
47960;SDS011;33721;48.852;9.936;2023-08-24T11:02:44;22.80;;;8.25;;
47960;SDS011;33721;48.852;9.936;2023-08-24T11:05:21;29.42;;;7.47;;
47960;SDS011;33721;48.852;9.936;2023-08-24T11:07:58;20.65;;;8.05;;
47960;SDS011;33721;48.852;9.936;2023-08-24T11:10:25;18.13;;;7.90;;
47960;SDS011;33721;48.852;9.936;2023-08-24T11:13:09;11.27;;;7.20;;
47960;SDS011;33721;48.852;9.936;2023-08-24T11:15:37;12.68;;;7.70;;
47960;SDS011;33721;48.852;9.936;2023-08-24T11:20:56;10.93;;;7.40;;
47960;SDS011;33721;48.852;9.936;2023-08-24T11:23:23;22.13;;;7.28;;
47960;SDS011;33721;48.852;9.936;2023-08-24T11:25:53;18.75;;;7.32;;
47960;SDS011;33721;48.852;9.936;2023-08-24T11:28:22;13.30;;;7.63;;
47960;SDS011;33721;48.852;9.936;2023-08-24T11:30:49;16.65;;;7.60;;
47960;SDS011;33721;48.852;9.936;2023-08-24T11:33:15;10.77;;;7.13;;
47960;SDS011;33721;48.852;9.936;2023-08-24T11:35:45;13.65;;;7.45;;
47960;SDS011;33721;48.852;9.936;2023-08-24T11:38:12;16.23;;;7.68;;
47960;SDS011;33721;48.852;9.936;2023-08-24T11:40:38;15.13;;;7.80;;
47960;SDS011;33721;48.852;9.936;2023-08-24T11:43:04;17.70;;;7.30;;
47960;SDS011;33721;48.852;9.936;2023-08-24T11:45:33;10.85;;;7.13;;
47960;SDS011;33721;48.852;9.936;2023-08-24T11:48:01;12.63;;;7.00;;
47960;SDS011;33721;48.852;9.936;2023-08-24T11:50:29;16.77;;;7.43;;
47960;SDS011;33721;48.852;9.936;2023-08-24T11:52:55;9.52;;;7.00;;
47960;SDS011;33721;48.852;9.936;2023-08-24T11:55:24;12.40;;;7.28;;
47960;SDS011;33721;48.852;9.936;2023-08-24T11:57:50;18.02;;;8.45;;
47960;SDS011;33721;48.852;9.936;2023-08-24T12:00:17;12.20;;;7.60;;
47960;SDS011;33721;48.852;9.936;2023-08-24T12:02:45;13.10;;;7.35;;
47960;SDS011;33721;48.852;9.936;2023-08-24T12:05:21;14.50;;;7.50;;
47960;SDS011;33721;48.852;9.936;2023-08-24T12:07:48;10.38;;;7.57;;
47960;SDS011;33721;48.852;9.936;2023-08-24T12:10:14;12.95;;;6.93;;
47960;SDS011;33721;48.852;9.936;2023-08-24T12:12:40;9.35;;;6.90;;
47960;SDS011;33721;48.852;9.936;2023-08-24T12:15:06;11.43;;;6.85;;
47960;SDS011;33721;48.852;9.936;2023-08-24T12:17:42;12.98;;;7.25;;
47960;SDS011;33721;48.852;9.936;2023-08-24T12:20:15;8.95;;;6.72;;
47960;SDS011;33721;48.852;9.936;2023-08-24T12:22:50;9.85;;;6.68;;
47960;SDS011;33721;48.852;9.936;2023-08-24T12:25:22;13.85;;;6.82;;
47960;SDS011;33721;48.852;9.936;2023-08-24T12:27:49;11.48;;;7.18;;
47960;SDS011;33721;48.852;9.936;2023-08-24T12:30:42;8.88;;;6.40;;
47960;SDS011;33721;48.852;9.936;2023-08-24T12:33:24;10.23;;;6.30;;
47960;SDS011;33721;48.852;9.936;2023-08-24T12:35:52;8.93;;;6.05;;
47960;SDS011;33721;48.852;9.936;2023-08-24T12:38:19;8.88;;;6.75;;
47960;SDS011;33721;48.852;9.936;2023-08-24T12:40:44;12.38;;;7.60;;
47960;SDS011;33721;48.852;9.936;2023-08-24T12:43:10;11.63;;;6.90;;
47960;SDS011;33721;48.852;9.936;2023-08-24T12:45:36;12.45;;;6.32;;
47960;SDS011;33721;48.852;9.936;2023-08-24T12:48:04;12.20;;;6.07;;
47960;SDS011;33721;48.852;9.936;2023-08-24T12:50:32;8.48;;;5.97;;
47960;SDS011;33721;48.852;9.936;2023-08-24T12:52:58;9.25;;;5.40;;
47960;SDS011;33721;48.852;9.936;2023-08-24T12:55:25;11.13;;;6.38;;
47960;SDS011;33721;48.852;9.936;2023-08-24T12:57:51;12.50;;;6.25;;
47960;SDS011;33721;48.852;9.936;2023-08-24T13:00:18;9.55;;;5.72;;
47960;SDS011;33721;48.852;9.936;2023-08-24T13:02:44;9.45;;;6.18;;
47960;SDS011;33721;48.852;9.936;2023-08-24T13:05:10;10.30;;;6.68;;
47960;SDS011;33721;48.852;9.936;2023-08-24T13:07:36;11.23;;;6.45;;
47960;SDS011;33721;48.852;9.936;2023-08-24T13:10:03;11.45;;;6.70;;
47960;SDS011;33721;48.852;9.936;2023-08-24T13:12:29;12.30;;;6.63;;
47960;SDS011;33721;48.852;9.936;2023-08-24T13:14:55;9.18;;;6.68;;
47960;SDS011;33721;48.852;9.936;2023-08-24T13:17:21;11.40;;;6.75;;
47960;SDS011;33721;48.852;9.936;2023-08-24T13:19:46;12.00;;;6.50;;
47960;SDS011;33721;48.852;9.936;2023-08-24T13:22:14;13.68;;;6.75;;
47960;SDS011;33721;48.852;9.936;2023-08-24T13:24:39;10.85;;;6.72;;
47960;SDS011;33721;48.852;9.936;2023-08-24T13:27:07;12.20;;;7.10;;
47960;SDS011;33721;48.852;9.936;2023-08-24T13:29:35;15.30;;;6.93;;
47960;SDS011;33721;48.852;9.936;2023-08-24T13:32:02;11.70;;;6.90;;
47960;SDS011;33721;48.852;9.936;2023-08-24T13:34:28;12.80;;;6.90;;
47960;SDS011;33721;48.852;9.936;2023-08-24T13:36:54;13.35;;;7.20;;
47960;SDS011;33721;48.852;9.936;2023-08-24T13:39:19;21.02;;;7.72;;
47960;SDS011;33721;48.852;9.936;2023-08-24T13:41:45;12.90;;;7.32;;
47960;SDS011;33721;48.852;9.936;2023-08-24T13:44:10;10.00;;;7.50;;
47960;SDS011;33721;48.852;9.936;2023-08-24T13:46:36;11.63;;;7.75;;
47960;SDS011;33721;48.852;9.936;2023-08-24T13:49:02;11.77;;;7.65;;
47960;SDS011;33721;48.852;9.936;2023-08-24T13:51:27;12.40;;;8.25;;
47960;SDS011;33721;48.852;9.936;2023-08-24T13:53:53;11.35;;;7.78;;
47960;SDS011;33721;48.852;9.936;2023-08-24T13:56:19;14.15;;;7.43;;
47960;SDS011;33721;48.852;9.936;2023-08-24T13:58:45;18.77;;;8.35;;
47960;SDS011;33721;48.852;9.936;2023-08-24T14:01:11;12.02;;;8.40;;
47960;SDS011;33721;48.852;9.936;2023-08-24T14:03:38;12.25;;;7.72;;
47960;SDS011;33721;48.852;9.936;2023-08-24T14:06:05;16.25;;;7.80;;
47960;SDS011;33721;48.852;9.936;2023-08-24T14:08:31;13.07;;;8.77;;
47960;SDS011;33721;48.852;9.936;2023-08-24T14:10:56;14.35;;;7.90;;
47960;SDS011;33721;48.852;9.936;2023-08-24T14:13:22;13.15;;;8.23;;
47960;SDS011;33721;48.852;9.936;2023-08-24T14:15:50;18.58;;;8.10;;
47960;SDS011;33721;48.852;9.936;2023-08-24T14:18:16;11.52;;;7.32;;
47960;SDS011;33721;48.852;9.936;2023-08-24T14:20:42;10.52;;;7.88;;
47960;SDS011;33721;48.852;9.936;2023-08-24T14:23:08;18.65;;;9.27;;
47960;SDS011;33721;48.852;9.936;2023-08-24T14:25:34;12.65;;;8.20;;
47960;SDS011;33721;48.852;9.936;2023-08-24T14:28:00;17.77;;;8.27;;
47960;SDS011;33721;48.852;9.936;2023-08-24T14:30:25;15.20;;;8.02;;
47960;SDS011;33721;48.852;9.936;2023-08-24T14:32:51;10.20;;;8.05;;
47960;SDS011;33721;48.852;9.936;2023-08-24T14:35:17;21.45;;;8.23;;
47960;SDS011;33721;48.852;9.936;2023-08-24T14:37:43;15.77;;;7.82;;
47960;SDS011;33721;48.852;9.936;2023-08-24T14:40:08;12.43;;;8.32;;
47960;SDS011;33721;48.852;9.936;2023-08-24T14:42:35;19.40;;;8.63;;
47960;SDS011;33721;48.852;9.936;2023-08-24T14:45:01;13.93;;;7.97;;
47960;SDS011;33721;48.852;9.936;2023-08-24T14:47:26;15.77;;;7.75;;
47960;SDS011;33721;48.852;9.936;2023-08-24T14:49:52;18.95;;;8.43;;
47960;SDS011;33721;48.852;9.936;2023-08-24T14:52:18;14.85;;;7.95;;
47960;SDS011;33721;48.852;9.936;2023-08-24T14:54:43;17.25;;;8.27;;